Time;durP1;ratioP1;P1;durP2;ratioP2;P2;SDS_P1;SDS_P2;PMS_P1;PMS_P2;Temp;Humidity;BMP_temperature;BMP_pressure;BME280_temperature;BME280_humidity;BME280_pressure;Samples;Min_cycle;Max_cycle;Signal;HPM_P1;HPM_P2
2020/12/10 00:01:48;;;;;;;3.70;2.55;;;2.40;99.90;;;;;;4426891;32;20081;-58
2020/12/10 00:04:14;;;;;;;2.05;1.90;;;2.30;99.90;;;;;;4429799;32;20511;-57
2020/12/10 00:06:40;;;;;;;6.32;2.75;;;2.30;99.90;;;;;;4416748;32;20062;-57
2020/12/10 00:09:06;;;;;;;16.95;4.10;;;2.40;99.90;;;;;;4416234;32;20069;-56
2020/12/10 00:11:34;;;;;;;3.90;2.35;;;2.50;99.90;;;;;;4447112;32;20082;-58
2020/12/10 00:14:00;;;;;;;6.80;3.15;;;2.50;99.90;;;;;;4433039;32;20069;-56
2020/12/10 00:16:26;;;;;;;5.70;3.33;;;2.50;99.90;;;;;;4446288;32;20516;-56
2020/12/10 00:18:51;;;;;;;5.45;2.62;;;2.40;99.90;;;;;;4432969;32;20168;-55
2020/12/10 00:21:21;;;;;;;6.57;3.87;;;2.50;99.90;;;;;;4445278;32;20123;-56
2020/12/10 00:23:47;;;;;;;3.35;2.65;;;2.50;99.90;;;;;;4446677;32;20130;-57
2020/12/10 00:26:12;;;;;;;3.97;3.50;;;2.40;99.90;;;;;;4446518;32;20056;-58
2020/12/10 00:28:38;;;;;;;14.77;4.47;;;2.30;99.90;;;;;;4446391;32;20069;-57
2020/12/10 00:31:04;;;;;;;19.58;4.78;;;2.40;99.90;;;;;;4446576;32;20521;-58
2020/12/10 00:33:29;;;;;;;10.68;3.80;;;2.40;99.90;;;;;;4419774;32;20065;-56
2020/12/10 00:35:55;;;;;;;20.48;4.85;;;2.50;99.90;;;;;;4415288;32;20086;-57
2020/12/10 00:38:21;;;;;;;3.95;2.60;;;2.40;99.90;;;;;;4415466;32;20186;-55
2020/12/10 00:40:46;;;;;;;7.47;3.80;;;2.40;99.90;;;;;;4426476;32;20064;-56
2020/12/10 00:43:12;;;;;;;6.22;3.55;;;2.40;99.90;;;;;;4430667;32;20080;-58
2020/12/10 00:45:37;;;;;;;6.80;2.95;;;2.30;99.90;;;;;;4430388;32;20183;-58
2020/12/10 00:48:03;;;;;;;11.05;4.75;;;2.30;99.90;;;;;;4430588;32;20093;-57
2020/12/10 00:50:28;;;;;;;6.07;3.42;;;2.30;99.90;;;;;;4441347;32;20064;-56
2020/12/10 00:52:54;;;;;;;9.45;4.87;;;2.30;99.90;;;;;;4431499;32;20073;-53
2020/12/10 00:55:19;;;;;;;4.90;2.50;;;2.30;99.90;;;;;;4444887;32;20058;-54
2020/12/10 00:57:45;;;;;;;9.98;4.18;;;2.20;99.90;;;;;;4445961;32;20065;-57
2020/12/10 01:00:11;;;;;;;4.85;3.08;;;2.20;99.90;;;;;;4445021;32;20077;-52
2020/12/10 01:02:36;;;;;;;5.43;4.03;;;2.20;99.90;;;;;;4446276;32;20081;-58
2020/12/10 01:05:04;;;;;;;1.75;1.65;;;2.20;99.90;;;;;;4425074;32;20158;-58
2020/12/10 01:07:30;;;;;;;7.18;3.65;;;2.10;99.90;;;;;;4413206;32;20090;-57
2020/12/10 01:09:55;;;;;;;7.07;2.35;;;2.20;99.90;;;;;;4428531;32;20081;-56
2020/12/10 01:12:20;;;;;;;5.57;3.42;;;2.20;99.90;;;;;;4446431;32;20065;-55
2020/12/10 01:14:46;;;;;;;3.75;2.95;;;2.20;99.90;;;;;;4445086;32;20509;-54
2020/12/10 01:17:11;;;;;;;5.47;3.35;;;2.10;99.90;;;;;;4446357;32;20065;-56
2020/12/10 01:19:37;;;;;;;3.92;2.70;;;2.10;99.90;;;;;;4444800;32;20057;-57
2020/12/10 01:22:03;;;;;;;2.85;2.00;;;2.20;99.90;;;;;;4446016;32;20073;-57
2020/12/10 01:24:29;;;;;;;8.73;4.07;;;2.20;99.90;;;;;;4431633;32;20097;-58
2020/12/10 01:26:54;;;;;;;8.23;4.18;;;2.40;99.90;;;;;;4444362;32;20424;-58
2020/12/10 01:29:21;;;;;;;2.97;2.67;;;2.30;99.90;;;;;;4441817;32;20085;-56
2020/12/10 01:31:48;;;;;;;2.20;2.00;;;2.20;99.90;;;;;;4430714;32;20090;-52
2020/12/10 01:34:14;;;;;;;3.42;3.12;;;2.10;99.90;;;;;;4414092;32;20116;-56
2020/12/10 01:36:39;;;;;;;16.95;3.83;;;2.10;99.90;;;;;;4425223;32;20069;-57
2020/12/10 01:39:05;;;;;;;3.05;1.95;;;2.10;99.90;;;;;;4430245;32;20061;-57
2020/12/10 01:41:32;;;;;;;8.95;4.35;;;2.10;99.90;;;;;;4431261;32;20455;-57
2020/12/10 01:44:15;;;;;;;3.70;2.42;;;2.10;99.90;;;;;;4439376;32;20085;-58
2020/12/10 01:46:42;;;;;;;7.00;3.25;;;2.00;99.90;;;;;;4430318;32;20121;-55
2020/12/10 01:49:08;;;;;;;18.05;3.67;;;2.00;99.90;;;;;;4417312;32;20100;-58
2020/12/10 01:51:35;;;;;;;4.40;2.87;;;2.00;99.90;;;;;;4416677;32;20085;-58
2020/12/10 01:54:01;;;;;;;5.37;3.08;;;2.00;99.90;;;;;;4413507;32;20437;-59
2020/12/10 01:56:27;;;;;;;4.93;2.65;;;1.90;99.90;;;;;;4413041;32;20062;-57
2020/12/10 01:58:53;;;;;;;4.47;3.62;;;1.90;99.90;;;;;;4413394;32;20065;-58
2020/12/10 02:01:19;;;;;;;4.90;2.97;;;1.90;99.90;;;;;;4413208;32;20082;-55
2020/12/10 02:03:45;;;;;;;20.48;3.50;;;1.90;99.90;;;;;;4422864;32;20094;-56
2020/12/10 02:06:10;;;;;;;5.45;2.80;;;1.90;99.90;;;;;;4432453;32;20062;-56
2020/12/10 02:08:40;;;;;;;8.38;3.75;;;1.90;99.90;;;;;;4418411;32;20497;-58
2020/12/10 02:11:11;;;;;;;8.23;3.67;;;1.90;99.90;;;;;;4413250;32;20440;-57
2020/12/10 02:13:37;;;;;;;;;;;2.00;99.90;;;;;;4405389;32;20086;-58
2020/12/10 02:16:03;;;;;;;4.65;3.03;;;1.90;99.90;;;;;;4443541;32;19953;-58
2020/12/10 02:18:29;;;;;;;0.93;0.93;;;1.80;99.90;;;;;;4432395;32;20518;-57
2020/12/10 02:20:55;;;;;;;5.97;3.22;;;1.90;99.90;;;;;;4447038;32;20065;-57
2020/12/10 02:23:20;;;;;;;7.87;3.65;;;1.90;99.90;;;;;;4445942;32;20056;-58
2020/12/10 02:25:46;;;;;;;5.65;3.47;;;1.90;99.90;;;;;;4403603;32;20066;-58
2020/12/10 02:28:14;;;;;;;3.28;2.67;;;1.90;99.90;;;;;;4432730;32;20053;-58
2020/12/10 02:30:42;;;;;;;9.10;3.03;;;1.90;99.90;;;;;;4419075;32;20069;-58
2020/12/10 02:33:08;;;;;;;4.05;2.80;;;1.90;99.90;;;;;;4416797;32;20061;-56
2020/12/10 02:35:36;;;;;;;30.45;3.67;;;1.80;99.90;;;;;;4415230;32;20096;-59
2020/12/10 02:38:04;;;;;;;7.95;4.30;;;1.80;99.90;;;;;;4428292;32;20073;-59
2020/12/10 02:40:32;;;;;;;3.30;3.00;;;1.80;99.90;;;;;;4432452;32;20066;-57
2020/12/10 02:42:58;;;;;;;7.43;3.95;;;1.90;99.90;;;;;;4432651;32;20078;-58
2020/12/10 02:45:24;;;;;;;4.53;2.12;;;1.90;99.90;;;;;;4417698;32;20086;-56
2020/12/10 02:47:50;;;;;;;4.18;3.22;;;2.00;99.90;;;;;;4417275;32;20078;-54
2020/12/10 02:50:16;;;;;;;6.90;3.40;;;1.80;99.90;;;;;;4441180;32;20065;-59
2020/12/10 02:52:42;;;;;;;5.20;2.78;;;1.80;99.90;;;;;;4446691;32;20485;-59
2020/12/10 02:55:07;;;;;;;7.43;2.83;;;1.80;99.90;;;;;;4446266;32;20158;-57
2020/12/10 02:57:33;;;;;;;6.82;3.78;;;1.80;99.90;;;;;;4448024;32;20094;-59
2020/12/10 02:59:58;;;;;;;2.03;1.83;;;2.00;99.90;;;;;;4439836;32;20077;-57
2020/12/10 03:02:24;;;;;;;6.85;3.40;;;2.20;99.90;;;;;;4432853;32;20082;-59
2020/12/10 03:04:49;;;;;;;2.15;1.98;;;2.10;99.90;;;;;;4431482;32;20061;-56
2020/12/10 03:07:15;;;;;;;5.25;3.30;;;1.90;99.90;;;;;;4433218;32;20069;-58
2020/12/10 03:09:42;;;;;;;1.73;1.45;;;1.70;99.90;;;;;;4422790;32;20080;-58
2020/12/10 03:12:08;;;;;;;4.37;2.67;;;1.70;99.90;;;;;;4448795;32;20065;-58
2020/12/10 03:14:33;;;;;;;6.72;3.17;;;1.60;99.90;;;;;;4447592;32;20077;-59
2020/12/10 03:16:59;;;;;;;2.72;2.28;;;1.60;99.90;;;;;;4447121;32;20056;-54
2020/12/10 03:19:24;;;;;;;5.87;3.67;;;1.60;99.90;;;;;;4444246;32;20085;-59
2020/12/10 03:21:50;;;;;;;2.72;2.37;;;1.60;99.90;;;;;;4432520;32;20069;-56
2020/12/10 03:24:16;;;;;;;3.90;2.20;;;1.60;99.90;;;;;;4431343;32;20541;-52
2020/12/10 03:26:42;;;;;;;9.63;4.25;;;1.60;99.90;;;;;;4431702;32;20412;-54
2020/12/10 03:29:09;;;;;;;11.15;3.30;;;1.70;99.90;;;;;;4432410;32;20077;-54
2020/12/10 03:31:35;;;;;;;11.45;4.97;;;1.70;99.90;;;;;;4431886;32;20128;-52
2020/12/10 03:34:01;;;;;;;1.83;1.67;;;1.70;99.90;;;;;;4430989;32;20073;-57
2020/12/10 03:36:26;;;;;;;4.03;2.58;;;1.60;99.90;;;;;;4432213;32;20079;-56
2020/12/10 03:38:52;;;;;;;3.97;2.90;;;1.60;99.90;;;;;;4417637;32;20089;-57
2020/12/10 03:41:18;;;;;;;2.20;1.95;;;1.60;99.90;;;;;;4432207;32;20061;-56
2020/12/10 03:43:43;;;;;;;5.32;3.30;;;1.60;99.90;;;;;;4431198;32;20077;-57
2020/12/10 03:46:08;;;;;;;36.92;4.85;;;1.60;99.90;;;;;;4432086;32;20134;-55
2020/12/10 03:48:34;;;;;;;5.15;2.85;;;1.60;99.90;;;;;;4431286;32;20065;-54
2020/12/10 03:50:59;;;;;;;3.62;3.28;;;1.60;99.90;;;;;;4440431;32;20399;-57
2020/12/10 03:53:25;;;;;;;7.93;3.12;;;1.70;99.90;;;;;;4446855;32;20119;-56
2020/12/10 03:55:50;;;;;;;5.07;2.60;;;1.80;99.90;;;;;;4445686;32;20069;-56
2020/12/10 03:58:16;;;;;;;2.95;2.45;;;1.80;99.90;;;;;;4446788;32;20061;-56
2020/12/10 04:00:41;;;;;;;3.70;2.75;;;1.80;99.90;;;;;;4435608;32;20580;-57
2020/12/10 04:03:07;;;;;;;5.85;3.15;;;1.90;99.90;;;;;;4430922;32;20137;-57
2020/12/10 04:05:32;;;;;;;7.35;4.20;;;2.00;99.90;;;;;;4431311;32;20428;-56
2020/12/10 04:07:58;;;;;;;2.53;2.33;;;1.90;99.90;;;;;;4430602;32;20595;-55
2020/12/10 04:10:23;;;;;;;2.92;2.42;;;1.70;99.90;;;;;;4430678;32;20078;-52
2020/12/10 04:12:49;;;;;;;7.22;4.07;;;1.70;99.90;;;;;;4431140;32;20127;-55
2020/12/10 04:15:14;;;;;;;5.35;3.00;;;1.70;99.90;;;;;;4431130;32;20077;-55
2020/12/10 04:17:40;;;;;;;2.25;1.87;;;1.60;99.90;;;;;;4430464;32;20069;-57
2020/12/10 04:20:05;;;;;;;9.60;3.08;;;1.70;99.90;;;;;;4431619;32;20599;-56
2020/12/10 04:22:31;;;;;;;11.20;4.85;;;1.60;99.90;;;;;;4431768;32;20081;-55
2020/12/10 04:24:57;;;;;;;6.53;4.35;;;1.60;99.90;;;;;;4430338;32;20069;-57
2020/12/10 04:27:22;;;;;;;6.85;2.50;;;1.60;99.90;;;;;;4431314;32;20184;-56
2020/12/10 04:29:47;;;;;;;9.63;3.08;;;1.60;99.90;;;;;;4432205;32;20542;-53
2020/12/10 04:32:13;;;;;;;2.28;2.08;;;1.60;99.90;;;;;;4431283;32;20082;-54
2020/12/10 04:34:38;;;;;;;11.23;5.45;;;1.70;99.90;;;;;;4429828;32;20061;-54
2020/12/10 04:37:04;;;;;;;3.25;2.45;;;1.80;99.90;;;;;;4431007;32;20081;-56
2020/12/10 04:39:29;;;;;;;6.40;4.32;;;1.80;99.90;;;;;;4431177;32;20502;-54
2020/12/10 04:41:55;;;;;;;4.65;3.37;;;1.70;99.90;;;;;;4430297;32;20070;-56
2020/12/10 04:44:20;;;;;;;7.12;4.00;;;1.80;99.90;;;;;;4430171;32;20142;-56
2020/12/10 04:46:47;;;;;;;5.57;3.50;;;1.80;99.90;;;;;;4430895;32;20057;-55
2020/12/10 04:49:13;;;;;;;2.60;2.30;;;1.70;99.90;;;;;;4415760;32;20128;-53
2020/12/10 04:51:42;;;;;;;7.55;2.55;;;1.60;99.90;;;;;;4416175;32;20158;-53
2020/12/10 04:54:08;;;;;;;9.98;4.47;;;1.60;99.90;;;;;;4417233;32;20064;-54
2020/12/10 04:56:33;;;;;;;3.53;2.85;;;1.60;99.90;;;;;;4429972;32;20121;-57
2020/12/10 04:59:00;;;;;;;1.83;1.62;;;1.70;99.90;;;;;;4430938;32;20085;-56
2020/12/10 05:01:26;;;;;;;9.02;2.97;;;1.70;99.90;;;;;;4431472;32;20053;-58
2020/12/10 05:03:54;;;;;;;2.20;1.95;;;1.60;99.90;;;;;;4446409;32;20073;-57
2020/12/10 05:06:19;;;;;;;16.05;4.55;;;1.60;99.90;;;;;;4433876;32;20078;-56
2020/12/10 05:08:45;;;;;;;1.40;1.30;;;1.60;99.90;;;;;;4430582;32;20077;-58
2020/12/10 05:11:11;;;;;;;25.75;7.90;;;1.60;99.90;;;;;;4444052;32;20072;-57
2020/12/10 05:13:37;;;;;;;3.42;2.72;;;1.60;99.90;;;;;;4445589;32;20085;-53
2020/12/10 05:16:03;;;;;;;8.30;3.25;;;1.60;99.90;;;;;;4432703;32;20057;-57
2020/12/10 05:18:29;;;;;;;6.40;4.07;;;1.50;99.90;;;;;;4431907;32;20123;-58
2020/12/10 05:20:57;;;;;;;6.32;3.28;;;1.50;99.90;;;;;;4432000;32;20086;-57
2020/12/10 05:23:39;;;;;;;2.92;1.73;;;1.40;99.90;;;;;;4422498;32;20090;-58
2020/12/10 05:26:06;;;;;;;2.08;1.98;;;1.40;99.90;;;;;;4425884;32;20535;-56
2020/12/10 05:28:41;;;;;;;2.53;1.92;;;1.30;99.90;;;;;;4402484;32;20127;-55
2020/12/10 05:31:10;;;;;;;2.30;2.10;;;1.40;99.90;;;;;;4437256;32;20110;-53
2020/12/10 05:33:53;;;;;;;9.32;2.22;;;1.40;99.90;;;;;;4397835;32;20635;-57
2020/12/10 05:36:19;;;;;;;3.72;2.92;;;1.40;99.90;;;;;;4402150;32;20073;-53
2020/12/10 05:39:08;;;;;;;8.38;3.70;;;1.40;99.90;;;;;;4400982;32;20078;-55
2020/12/10 05:41:37;;;;;;;6.03;2.53;;;1.40;99.90;;;;;;4403302;32;20121;-58
2020/12/10 05:46:51;;;;;;;2.03;1.73;;;1.50;99.90;;;;;;4413544;32;20089;-57
2020/12/10 05:49:18;;;;;;;11.93;4.12;;;1.50;99.90;;;;;;4404312;32;20113;-58
2020/12/10 05:51:45;;;;;;;4.25;2.90;;;1.60;99.90;;;;;;4429230;32;20089;-58
2020/12/10 05:54:12;;;;;;;12.25;3.60;;;1.60;99.90;;;;;;4418375;32;20049;-58
2020/12/10 05:56:51;;;;;;;10.05;4.97;;;1.60;99.90;;;;;;4417950;32;20054;-54
2020/12/10 05:59:17;;;;;;;4.80;3.20;;;1.70;99.90;;;;;;4431271;32;20065;-57
2020/12/10 06:01:44;;;;;;;8.93;3.12;;;1.60;99.90;;;;;;4409895;32;20330;-58
2020/12/10 06:04:13;;;;;;;13.52;4.10;;;1.50;99.90;;;;;;4426362;32;20085;-54
2020/12/10 06:06:38;;;;;;;4.22;2.55;;;1.50;99.90;;;;;;4412181;32;20128;-57
2020/12/10 06:09:06;;;;;;;4.95;3.35;;;1.40;99.90;;;;;;4428557;32;20089;-56
2020/12/10 06:11:32;;;;;;;3.97;2.97;;;1.50;99.90;;;;;;4409683;32;20468;-58
2020/12/10 06:14:01;;;;;;;9.15;4.30;;;1.50;99.90;;;;;;4411729;32;20057;-56
2020/12/10 06:16:27;;;;;;;3.62;1.98;;;1.50;99.90;;;;;;4428463;32;20065;-55
2020/12/10 06:19:04;;;;;;;5.93;3.12;;;1.50;99.90;;;;;;4412411;32;20147;-58
2020/12/10 06:21:31;;;;;;;6.97;4.60;;;1.50;99.90;;;;;;4428484;32;20061;-55
2020/12/10 06:23:57;;;;;;;9.68;4.78;;;1.50;99.90;;;;;;4415304;32;20069;-55
2020/12/10 06:26:25;;;;;;;2.50;2.30;;;1.60;99.90;;;;;;4428427;32;20094;-57
2020/12/10 06:29:11;;;;;;;15.55;4.97;;;1.40;99.90;;;;;;4428103;32;20097;-58
2020/12/10 06:31:59;;;;;;;1.42;1.33;;;1.40;99.90;;;;;;4378516;32;20578;-58
2020/12/10 06:34:42;;;;;;;5.50;2.67;;;1.40;99.90;;;;;;4400880;32;20561;-56
2020/12/10 06:37:25;;;;;;;4.25;3.10;;;1.60;99.90;;;;;;4435409;32;20416;-57
2020/12/10 06:39:53;;;;;;;5.22;3.95;;;1.50;99.90;;;;;;4415754;32;20518;-58
2020/12/10 06:42:19;;;;;;;11.40;2.72;;;1.50;99.90;;;;;;4401053;32;20062;-60
2020/12/10 06:44:45;;;;;;;2.42;2.22;;;1.50;99.90;;;;;;4413543;32;20086;-54
2020/12/10 06:47:12;;;;;;;18.05;5.10;;;1.60;99.90;;;;;;4412725;32;20094;-56
2020/12/10 06:49:38;;;;;;;1.95;1.85;;;1.60;99.90;;;;;;4410077;32;20098;-57
2020/12/10 06:52:17;;;;;;;7.85;4.47;;;1.60;99.90;;;;;;4412179;32;20061;-57
2020/12/10 06:55:04;;;;;;;2.28;1.92;;;1.50;99.90;;;;;;4426745;32;20136;-56
2020/12/10 06:58:00;;;;;;;1.25;1.10;;;1.50;99.90;;;;;;4410055;32;20078;-57
2020/12/10 07:00:47;;;;;;;5.90;3.78;;;1.60;99.90;;;;;;4412704;32;20188;-54
2020/12/10 07:03:18;;;;;;;4.00;3.05;;;1.50;99.90;;;;;;4409987;32;20137;-56
2020/12/10 07:05:44;;;;;;;21.45;4.00;;;1.40;99.90;;;;;;4411861;32;20464;-57
2020/12/10 07:08:11;;;;;;;4.12;2.37;;;1.40;99.90;;;;;;4416341;32;20121;-57
2020/12/10 07:10:40;;;;;;;10.38;3.45;;;1.40;99.90;;;;;;4412513;32;20072;-55
2020/12/10 07:13:06;;;;;;;4.28;2.90;;;1.50;99.90;;;;;;4414478;32;20116;-59
2020/12/10 07:15:32;;;;;;;7.30;3.80;;;1.60;99.90;;;;;;4425399;32;20618;-58
2020/12/10 07:18:00;;;;;;;11.12;2.87;;;1.70;99.90;;;;;;4414245;32;20065;-58
2020/12/10 07:20:27;;;;;;;2.80;2.20;;;1.70;99.90;;;;;;4433740;32;20126;-55
2020/12/10 07:22:52;;;;;;;12.18;4.72;;;1.60;99.90;;;;;;4400346;32;20090;-59
2020/12/10 07:25:18;;;;;;;6.05;2.92;;;1.60;99.90;;;;;;4419215;32;20125;-59
2020/12/10 07:27:44;;;;;;;4.97;2.67;;;1.60;99.90;;;;;;4426976;32;20064;-58
2020/12/10 07:30:10;;;;;;;2.70;2.00;;;1.50;99.90;;;;;;4426735;32;20470;-55
2020/12/10 07:32:36;;;;;;;16.92;2.72;;;1.50;99.90;;;;;;4412569;32;20065;-57
2020/12/10 07:35:01;;;;;;;2.75;2.47;;;1.50;99.90;;;;;;4418092;32;20128;-57
2020/12/10 07:37:31;;;;;;;5.07;3.17;;;1.60;99.90;;;;;;4425838;32;20503;-58
2020/12/10 07:40:10;;;;;;;11.60;4.93;;;1.50;99.90;;;;;;4424515;32;20093;-58
2020/12/10 07:42:36;;;;;;;5.32;3.78;;;1.50;99.90;;;;;;4422798;32;20125;-57
2020/12/10 07:45:11;;;;;;;6.20;3.15;;;1.50;99.90;;;;;;4417791;32;20487;-52
2020/12/10 07:47:37;;;;;;;11.98;3.70;;;1.50;99.90;;;;;;4398556;32;20078;-53
2020/12/10 07:50:07;;;;;;;4.87;2.70;;;1.50;99.90;;;;;;4423574;32;20069;-53
2020/12/10 07:52:32;;;;;;;1.75;1.65;;;1.40;99.90;;;;;;4425530;32;20437;-56
2020/12/10 07:54:59;;;;;;;3.47;3.10;;;1.40;99.90;;;;;;4417823;32;20081;-58
2020/12/10 07:57:31;;;;;;;9.27;3.40;;;1.40;99.90;;;;;;4421390;32;20131;-57
2020/12/10 08:00:02;;;;;;;3.20;2.65;;;1.50;99.90;;;;;;4410336;32;20207;-58
2020/12/10 08:02:38;;;;;;;;;;;1.50;99.90;;;;;;4420901;32;20366;-55
2020/12/10 08:05:18;;;;;;;5.18;2.95;;;1.40;99.90;;;;;;4416621;32;19966;-56
2020/12/10 08:07:46;;;;;;;;;;;1.40;99.90;;;;;;4406011;32;20436;-56
2020/12/10 08:10:21;;;;;;;4.12;3.05;;;1.40;99.90;;;;;;4427404;32;20004;-58
2020/12/10 08:13:07;;;;;;;1.65;1.55;;;1.40;99.90;;;;;;4415235;32;20488;-59
2020/12/10 08:15:33;;;;;;;7.93;3.12;;;1.40;99.90;;;;;;4417166;32;20068;-56
2020/12/10 08:18:08;;;;;;;4.68;1.55;;;1.50;99.90;;;;;;4419827;32;20512;-58
2020/12/10 08:20:36;;;;;;;11.35;3.30;;;1.50;99.90;;;;;;4398897;32;20066;-56
2020/12/10 08:23:02;;;;;;;11.50;2.72;;;1.50;99.90;;;;;;4427354;32;20074;-58
2020/12/10 08:25:27;;;;;;;22.10;3.80;;;1.50;99.90;;;;;;4424706;32;20061;-57
2020/12/10 08:27:53;;;;;;;5.68;3.47;;;1.50;99.90;;;;;;4421329;32;20415;-58
2020/12/10 08:30:18;;;;;;;1.48;1.37;;;1.50;99.90;;;;;;4424377;32;20550;-58
2020/12/10 08:32:56;;;;;;;3.67;2.33;;;1.50;99.90;;;;;;4408925;32;20134;-57
2020/12/10 08:35:23;;;;;;;2.10;1.62;;;1.60;99.90;;;;;;4417047;32;20089;-58
2020/12/10 08:37:48;;;;;;;5.43;3.25;;;1.60;99.90;;;;;;4412808;32;20137;-56
2020/12/10 08:40:24;;;;;;;3.67;2.75;;;1.70;99.90;;;;;;4425162;32;94110;-59
2020/12/10 08:42:50;;;;;;;7.32;3.28;;;1.70;99.90;;;;;;4428451;32;20065;-56
2020/12/10 08:45:29;;;;;;;2.85;2.08;;;1.70;99.90;;;;;;4421289;32;20185;-57
2020/12/10 08:47:57;;;;;;;3.53;2.80;;;1.60;99.90;;;;;;4410669;32;20084;-57
2020/12/10 08:50:24;;;;;;;4.62;2.47;;;1.70;99.90;;;;;;4410007;32;20054;-56
2020/12/10 08:53:01;;;;;;;3.95;2.30;;;1.60;99.90;;;;;;4425544;32;20120;-57
2020/12/10 08:55:28;;;;;;;22.52;3.00;;;1.60;99.90;;;;;;4424761;32;20128;-55
2020/12/10 08:57:56;;;;;;;14.60;3.85;;;1.60;99.90;;;;;;4409074;32;20057;-56
2020/12/10 09:00:21;;;;;;;3.95;2.65;;;1.70;99.90;;;;;;4408136;32;20077;-58
2020/12/10 09:02:46;;;;;;;7.28;2.50;;;1.70;99.90;;;;;;4414936;32;20099;-58
2020/12/10 09:05:16;;;;;;;6.28;3.37;;;1.60;99.90;;;;;;4418633;32;20069;-55
2020/12/10 09:07:41;;;;;;;1.80;1.70;;;1.70;99.90;;;;;;4405647;32;20061;-54
2020/12/10 09:10:07;;;;;;;2.10;1.42;;;1.80;99.90;;;;;;4415959;32;20102;-55
2020/12/10 09:12:33;;;;;;;12.07;3.70;;;1.80;99.90;;;;;;4405244;32;20078;-58
2020/12/10 09:14:58;;;;;;;4.70;2.45;;;1.70;99.90;;;;;;4406102;32;20315;-56
2020/12/10 09:17:24;;;;;;;2.33;1.73;;;1.60;99.90;;;;;;4416738;32;20308;-58
2020/12/10 09:19:49;;;;;;;4.00;3.10;;;1.80;99.90;;;;;;4424458;32;20073;-58
2020/12/10 09:22:15;;;;;;;1.98;1.77;;;1.70;99.90;;;;;;4400646;32;20081;-58
2020/12/10 09:24:40;;;;;;;2.83;1.73;;;1.70;99.90;;;;;;4417496;32;20137;-58
2020/12/10 09:27:07;;;;;;;8.38;2.97;;;1.60;99.90;;;;;;4417631;32;20085;-59
2020/12/10 09:29:33;;;;;;;13.05;4.37;;;1.50;99.90;;;;;;4422245;32;20531;-56
2020/12/10 09:32:00;;;;;;;4.72;3.25;;;1.60;99.90;;;;;;4407473;32;20523;-57
2020/12/10 09:34:26;;;;;;;11.45;3.60;;;1.70;99.90;;;;;;4417670;32;20140;-58
2020/12/10 09:36:52;;;;;;;2.10;1.40;;;1.70;99.90;;;;;;4418517;32;20298;-57
2020/12/10 09:39:18;;;;;;;5.47;1.98;;;1.70;99.90;;;;;;4404137;32;20155;-58
2020/12/10 09:41:43;;;;;;;6.00;2.58;;;1.60;99.90;;;;;;4424606;32;20464;-59
2020/12/10 09:44:10;;;;;;;2.08;1.98;;;1.50;99.90;;;;;;4424227;32;20136;-58
2020/12/10 09:46:35;;;;;;;1.70;1.58;;;1.40;99.90;;;;;;4410410;32;20089;-54
2020/12/10 09:49:01;;;;;;;6.00;3.40;;;1.40;99.90;;;;;;4426431;32;20069;-56
2020/12/10 09:51:33;;;;;;;4.43;2.50;;;1.40;99.90;;;;;;4408663;32;20069;-58
2020/12/10 09:54:39;;;;;;;48.22;3.12;;;1.50;99.90;;;;;;4421167;32;20512;-57
2020/12/10 09:57:44;;;;;;;6.28;3.67;;;1.50;99.90;;;;;;4408705;32;20077;-57
2020/12/10 09:59:32;;;;;;;4.35;1.98;;;1.60;99.90;;;;;;4405794;32;20123;-57
2020/12/10 10:01:58;;;;;;;7.57;2.67;;;1.60;99.90;;;;;;4396527;32;20073;-56
2020/12/10 10:04:23;;;;;;;9.88;4.18;;;1.50;99.90;;;;;;4424012;32;20078;-57
2020/12/10 10:06:49;;;;;;;11.12;4.95;;;1.40;99.90;;;;;;4419248;32;20081;-55
2020/12/10 10:09:15;;;;;;;3.33;1.30;;;1.50;99.90;;;;;;4414826;32;20528;-56
2020/12/10 10:11:41;;;;;;;5.78;2.42;;;1.50;99.90;;;;;;4420090;32;20530;-57
2020/12/10 10:14:06;;;;;;;4.85;2.45;;;1.40;99.90;;;;;;4423691;32;20087;-55
2020/12/10 10:16:32;;;;;;;5.15;2.83;;;1.50;99.90;;;;;;4424086;32;20090;-56
2020/12/10 10:18:59;;;;;;;2.22;2.03;;;1.40;99.90;;;;;;4408783;32;20066;-58
2020/12/10 10:21:28;;;;;;;4.50;3.17;;;1.50;99.90;;;;;;4394226;32;20069;-57
2020/12/10 10:23:54;;;;;;;10.90;4.45;;;1.50;99.90;;;;;;4407364;32;20077;-57
2020/12/10 10:26:20;;;;;;;3.53;2.60;;;1.50;99.90;;;;;;4402530;32;20068;-56
2020/12/10 10:28:48;;;;;;;3.25;2.72;;;1.40;99.90;;;;;;4423208;32;20077;-56
2020/12/10 10:31:14;;;;;;;3.25;2.70;;;1.40;99.90;;;;;;4423442;32;20066;-56
2020/12/10 10:33:39;;;;;;;10.15;4.15;;;1.40;99.90;;;;;;4410004;32;20062;-54
2020/12/10 10:36:05;;;;;;;2.80;2.00;;;1.40;99.90;;;;;;4426751;32;20261;-58
2020/12/10 10:38:30;;;;;;;5.32;3.97;;;1.40;99.90;;;;;;4422028;32;20571;-56
2020/12/10 10:40:56;;;;;;;4.53;2.78;;;1.40;99.90;;;;;;4421635;32;20118;-55
2020/12/10 10:43:21;;;;;;;43.15;3.70;;;1.40;99.90;;;;;;4420194;32;20074;-57
2020/12/10 10:45:47;;;;;;;5.28;2.25;;;1.40;99.90;;;;;;4425391;32;20085;-58
2020/12/10 10:48:12;;;;;;;1.60;1.50;;;1.40;99.90;;;;;;4425277;32;20120;-56
2020/12/10 10:50:39;;;;;;;3.95;2.40;;;1.40;99.90;;;;;;4424007;32;20168;-58
2020/12/10 10:53:05;;;;;;;5.90;4.32;;;1.50;99.90;;;;;;4411118;32;20077;-57
2020/12/10 10:55:30;;;;;;;3.15;2.53;;;1.60;99.90;;;;;;4420920;32;20094;-58
2020/12/10 10:57:56;;;;;;;3.50;2.12;;;1.50;99.90;;;;;;4422826;32;20066;-59
2020/12/10 11:00:22;;;;;;;7.95;3.62;;;1.40;99.90;;;;;;4408391;32;20089;-59
2020/12/10 11:02:47;;;;;;;3.72;2.40;;;1.70;99.90;;;;;;4415648;32;20185;-57
2020/12/10 11:05:13;;;;;;;4.35;2.62;;;1.50;99.90;;;;;;4421982;32;20548;-56
2020/12/10 11:07:40;;;;;;;2.17;1.87;;;1.60;99.90;;;;;;4423264;32;20073;-57
2020/12/10 11:10:08;;;;;;;54.65;4.35;;;1.60;99.90;;;;;;4406387;32;20243;-56
2020/12/10 11:12:33;;;;;;;10.23;2.78;;;1.50;99.90;;;;;;4394965;32;20086;-57
2020/12/10 11:14:59;;;;;;;21.25;6.65;;;1.50;99.90;;;;;;4406385;32;20433;-58
2020/12/10 11:17:25;;;;;;;6.25;3.53;;;1.50;99.90;;;;;;4417285;32;20086;-57
2020/12/10 11:19:50;;;;;;;8.65;4.97;;;1.50;99.90;;;;;;4421237;32;20582;-58
2020/12/10 11:22:16;;;;;;;6.03;2.35;;;1.50;99.90;;;;;;4420892;32;20518;-54
2020/12/10 11:24:41;;;;;;;1.92;1.33;;;1.60;99.90;;;;;;4421825;32;20089;-57
2020/12/10 11:27:07;;;;;;;18.45;4.68;;;1.60;99.90;;;;;;4424219;32;20058;-58
2020/12/10 11:29:34;;;;;;;6.20;2.62;;;1.60;99.90;;;;;;4418988;32;20617;-55
2020/12/10 11:32:00;;;;;;;15.35;4.72;;;1.80;99.90;;;;;;4423171;32;20510;-56
2020/12/10 11:34:25;;;;;;;10.07;3.12;;;1.60;99.90;;;;;;4421238;32;20128;-55
2020/12/10 11:36:51;;;;;;;10.15;5.75;;;1.60;99.90;;;;;;4416082;32;20125;-56
2020/12/10 11:39:17;;;;;;;4.22;3.30;;;1.60;99.90;;;;;;4421997;32;20140;-56
2020/12/10 11:41:44;;;;;;;4.80;2.78;;;1.60;99.90;;;;;;4422751;32;20067;-57
2020/12/10 11:44:10;;;;;;;1.10;1.10;;;1.60;99.90;;;;;;4394364;32;20101;-56
2020/12/10 11:46:35;;;;;;;2.62;2.37;;;1.70;99.90;;;;;;4407271;32;20081;-55
2020/12/10 11:49:01;;;;;;;2.92;2.37;;;1.70;99.90;;;;;;4423033;32;20124;-57
2020/12/10 11:51:26;;;;;;;5.57;3.25;;;1.70;99.90;;;;;;4406752;32;20160;-57
2020/12/10 11:53:53;;;;;;;9.23;3.25;;;1.70;99.90;;;;;;4421158;32;20064;-55
2020/12/10 11:56:19;;;;;;;4.50;2.47;;;1.60;99.90;;;;;;4419195;32;20572;-57
2020/12/10 11:58:45;;;;;;;9.93;2.70;;;1.50;99.90;;;;;;4421053;32;20316;-58
2020/12/10 12:01:10;;;;;;;1.75;1.65;;;1.50;99.90;;;;;;4416142;32;20082;-58
2020/12/10 12:03:36;;;;;;;6.82;3.50;;;1.60;99.90;;;;;;4428425;32;20074;-52
2020/12/10 12:06:02;;;;;;;1.58;1.33;;;1.50;99.90;;;;;;4419865;32;20557;-58
2020/12/10 12:08:28;;;;;;;3.62;3.08;;;1.50;99.90;;;;;;4425041;32;20542;-58
2020/12/10 12:10:55;;;;;;;4.50;2.62;;;1.50;99.90;;;;;;4424115;32;20090;-57
2020/12/10 12:13:21;;;;;;;1.77;1.67;;;1.50;99.90;;;;;;4424491;32;20314;-58
2020/12/10 12:15:46;;;;;;;2.95;1.80;;;1.60;99.90;;;;;;4423613;32;20458;-57
2020/12/10 12:18:13;;;;;;;11.20;1.85;;;1.70;99.90;;;;;;4410610;32;20069;-58
2020/12/10 12:20:38;;;;;;;13.82;4.35;;;1.70;99.90;;;;;;4419490;32;20057;-57
2020/12/10 12:23:06;;;;;;;7.60;3.15;;;1.70;99.90;;;;;;4418897;32;20077;-58
2020/12/10 12:25:31;;;;;;;6.22;2.17;;;1.60;99.90;;;;;;4423091;32;20199;-58
2020/12/10 12:27:57;;;;;;;6.12;2.08;;;1.60;99.90;;;;;;4420737;32;20074;-58
2020/12/10 12:30:22;;;;;;;6.22;3.83;;;1.60;99.90;;;;;;4419331;32;20085;-58
2020/12/10 12:32:48;;;;;;;2.25;1.67;;;1.60;99.90;;;;;;4421484;32;20089;-57
2020/12/10 12:35:13;;;;;;;10.57;3.62;;;1.60;99.90;;;;;;4416518;32;20097;-57
2020/12/10 12:37:39;;;;;;;8.57;4.53;;;1.60;99.90;;;;;;4423171;32;20101;-56
2020/12/10 12:40:04;;;;;;;4.40;2.70;;;1.60;99.90;;;;;;4417397;32;20601;-57
2020/12/10 12:42:30;;;;;;;1.60;1.45;;;1.60;99.90;;;;;;4406268;32;20061;-59
2020/12/10 12:44:55;;;;;;;5.60;3.35;;;1.50;99.90;;;;;;4422547;32;20082;-58
2020/12/10 12:47:21;;;;;;;11.80;2.30;;;1.60;99.90;;;;;;4422282;32;20424;-58
2020/12/10 12:49:46;;;;;;;6.45;2.92;;;1.70;99.90;;;;;;4419166;32;20086;-57
2020/12/10 12:52:12;;;;;;;9.63;4.85;;;1.70;99.90;;;;;;4422589;32;20090;-55
2020/12/10 12:54:37;;;;;;;4.43;2.40;;;1.70;99.90;;;;;;4425326;32;20398;-58
2020/12/10 12:57:03;;;;;;;2.95;2.20;;;1.80;99.90;;;;;;4424756;32;20061;-57
2020/12/10 12:59:29;;;;;;;3.53;2.33;;;1.70;99.90;;;;;;4417286;32;20116;-58